Time;durP1;ratioP1;P1;durP2;ratioP2;P2;SDS_P1;SDS_P2;PMS_P1;PMS_P2;Temp;Humidity;BMP_temperature;BMP_pressure;BME280_temperature;BME280_humidity;BME280_pressure;Samples;Min_cycle;Max_cycle;Signal;HPM_P1;HPM_P2
2022/01/05 00:01:06;;;;;;;1.15;1.05;;;;;;;;;;5030384;28;20293;-47
2022/01/05 00:03:32;;;;;;;2.10;1.60;;;;;;;;;;5039107;28;20227;-47
2022/01/05 00:05:58;;;;;;;1.20;1.08;;;;;;;;;;5034462;28;20587;-47
2022/01/05 00:08:25;;;;;;;1.48;1.38;;;;;;;;;;5035234;28;20185;-48
2022/01/05 00:10:52;;;;;;;1.35;1.25;;;;;;;;;;5041525;28;20210;-47
2022/01/05 00:13:18;;;;;;;1.85;1.38;;;;;;;;;;5029755;28;20208;-47
2022/01/05 00:15:44;;;;;;;1.30;1.20;;;;;;;;;;5042358;28;20223;-47
2022/01/05 00:18:10;;;;;;;1.25;1.15;;;;;;;;;;5038951;28;20198;-47
2022/01/05 00:20:36;;;;;;;1.77;1.30;;;;;;;;;;5022734;28;20216;-47
2022/01/05 00:23:02;;;;;;;1.50;1.40;;;;;;;;;;5030047;28;20190;-47
2022/01/05 00:25:28;;;;;;;1.30;1.20;;;;;;;;;;5044258;28;20214;-47
2022/01/05 00:27:54;;;;;;;1.40;1.20;;;;;;;;;;5043899;28;20186;-47
2022/01/05 00:30:20;;;;;;;1.33;1.13;;;;;;;;;;5037357;28;20296;-47
2022/01/05 00:32:46;;;;;;;2.15;1.30;;;;;;;;;;5021271;28;20657;-47
2022/01/05 00:35:12;;;;;;;1.08;1.00;;;;;;;;;;5036301;28;20184;-47
2022/01/05 00:37:38;;;;;;;1.20;1.10;;;;;;;;;;5035499;28;20241;-47
2022/01/05 00:40:06;;;;;;;1.30;1.20;;;;;;;;;;5030910;28;20199;-47
2022/01/05 00:42:32;;;;;;;1.75;1.15;;;;;;;;;;5038460;28;20185;-47
2022/01/05 00:44:58;;;;;;;1.05;1.02;;;;;;;;;;5043339;28;20485;-47
2022/01/05 00:47:24;;;;;;;1.13;1.10;;;;;;;;;;5033901;28;20268;-47
2022/01/05 00:49:50;;;;;;;2.10;1.17;;;;;;;;;;5038498;28;20294;-47
2022/01/05 00:52:16;;;;;;;1.20;1.10;;;;;;;;;;5042954;28;20197;-47
2022/01/05 00:54:42;;;;;;;2.95;1.20;;;;;;;;;;5046427;28;20183;-47
2022/01/05 00:57:08;;;;;;;1.30;1.20;;;;;;;;;;5038966;28;20270;-47
2022/01/05 00:59:34;;;;;;;0.90;0.90;;;;;;;;;;5037670;28;20279;-47
2022/01/05 01:02:00;;;;;;;1.15;1.05;;;;;;;;;;5031474;28;20214;-47
2022/01/05 01:04:26;;;;;;;1.10;1.00;;;;;;;;;;5042837;28;20239;-47
2022/01/05 01:06:52;;;;;;;0.93;0.90;;;;;;;;;;5042224;28;20183;-47
2022/01/05 01:09:18;;;;;;;1.00;0.90;;;;;;;;;;5038263;28;20274;-47
2022/01/05 01:11:44;;;;;;;1.20;1.10;;;;;;;;;;5050594;28;20268;-47
2022/01/05 01:14:10;;;;;;;1.02;0.93;;;;;;;;;;5024132;28;20570;-47
2022/01/05 01:16:36;;;;;;;0.77;0.75;;;;;;;;;;5035433;28;20187;-47
2022/01/05 01:19:03;;;;;;;1.20;1.10;;;;;;;;;;5036795;28;20250;-47
2022/01/05 01:21:29;;;;;;;0.80;0.80;;;;;;;;;;5029294;28;20208;-47
2022/01/05 01:23:55;;;;;;;1.05;0.85;;;;;;;;;;5044024;28;20206;-47
2022/01/05 01:26:25;;;;;;;0.90;0.90;;;;;;;;;;5045025;28;20171;-47
2022/01/05 01:28:52;;;;;;;1.00;0.90;;;;;;;;;;5035899;28;20559;-47
2022/01/05 01:31:18;;;;;;;0.77;0.77;;;;;;;;;;5042949;28;20474;-47
2022/01/05 01:33:44;;;;;;;1.05;1.00;;;;;;;;;;5028409;28;20621;-48
2022/01/05 01:36:10;;;;;;;0.90;0.90;;;;;;;;;;5041308;28;20190;-47
2022/01/05 01:38:36;;;;;;;0.80;0.80;;;;;;;;;;5041611;28;20218;-47
2022/01/05 01:41:03;;;;;;;1.00;0.90;;;;;;;;;;5041835;28;20218;-47
2022/01/05 01:43:28;;;;;;;0.80;0.80;;;;;;;;;;5036181;28;20318;-47
2022/01/05 01:45:54;;;;;;;1.13;1.00;;;;;;;;;;5051466;28;20255;-47
2022/01/05 01:48:20;;;;;;;0.88;0.82;;;;;;;;;;5043593;28;20558;-47
2022/01/05 01:50:46;;;;;;;0.80;0.80;;;;;;;;;;5040406;28;20187;-47
2022/01/05 01:53:13;;;;;;;0.63;0.63;;;;;;;;;;5036162;28;20188;-47
2022/01/05 01:55:39;;;;;;;0.75;0.75;;;;;;;;;;5035500;28;20445;-47
2022/01/05 01:58:05;;;;;;;0.88;0.80;;;;;;;;;;5030129;28;20191;-47
2022/01/05 02:00:31;;;;;;;0.70;0.70;;;;;;;;;;5039872;28;20212;-47
2022/01/05 02:02:57;;;;;;;1.65;0.73;;;;;;;;;;5027000;28;20195;-48
2022/01/05 02:05:23;;;;;;;0.80;0.80;;;;;;;;;;5034432;28;20195;-47
2022/01/05 02:07:49;;;;;;;1.00;0.88;;;;;;;;;;5040858;28;20178;-47
2022/01/05 02:10:16;;;;;;;0.63;0.60;;;;;;;;;;5041612;28;20198;-47
2022/01/05 02:12:42;;;;;;;0.70;0.70;;;;;;;;;;5034990;28;20192;-47
2022/01/05 02:15:09;;;;;;;0.73;0.73;;;;;;;;;;5038323;28;20309;-47
2022/01/05 02:17:49;;;;;;;0.70;0.70;;;;;;;;;;5028404;28;20586;-47
2022/01/05 02:20:20;;;;;;;1.20;0.90;;;;;;;;;;5024102;28;20465;-47
2022/01/05 02:22:46;;;;;;;0.52;0.52;;;;;;;;;;5042891;28;20184;-47
2022/01/05 02:25:13;;;;;;;0.60;0.57;;;;;;;;;;5026507;28;20200;-47
2022/01/05 02:27:42;;;;;;;0.52;0.52;;;;;;;;;;5023438;28;20774;-47
2022/01/05 02:30:12;;;;;;;2.28;0.50;;;;;;;;;;5030108;28;20187;-47
2022/01/05 02:32:38;;;;;;;0.65;0.63;;;;;;;;;;5046140;28;20192;-47
2022/01/05 02:35:05;;;;;;;0.70;0.70;;;;;;;;;;5043988;28;20183;-47
2022/01/05 02:37:31;;;;;;;0.52;0.52;;;;;;;;;;5038199;28;20188;-47
2022/01/05 02:39:57;;;;;;;0.63;0.63;;;;;;;;;;5044633;28;20601;-47
2022/01/05 02:42:27;;;;;;;1.67;0.60;;;;;;;;;;5050456;28;20564;-47
2022/01/05 02:44:53;;;;;;;0.65;0.57;;;;;;;;;;5030493;28;20184;-47
2022/01/05 02:47:19;;;;;;;0.63;0.60;;;;;;;;;;5040742;28;20327;-47
2022/01/05 02:49:45;;;;;;;0.60;0.60;;;;;;;;;;5023579;28;20568;-47
2022/01/05 02:52:11;;;;;;;0.60;0.60;;;;;;;;;;5033490;28;20184;-47
2022/01/05 02:54:37;;;;;;;0.52;0.52;;;;;;;;;;5026457;28;20271;-47
2022/01/05 02:57:04;;;;;;;0.63;0.60;;;;;;;;;;5044549;28;20202;-47
2022/01/05 02:59:30;;;;;;;0.50;0.50;;;;;;;;;;5022455;28;20181;-47
2022/01/05 03:01:56;;;;;;;1.05;0.60;;;;;;;;;;5036705;28;20219;-47
2022/01/05 03:04:23;;;;;;;0.40;0.40;;;;;;;;;;5033342;28;20190;-47
2022/01/05 03:06:49;;;;;;;0.52;0.52;;;;;;;;;;5037715;28;20184;-47
2022/01/05 03:09:15;;;;;;;0.52;0.52;;;;;;;;;;5035517;28;20184;-47
2022/01/05 03:11:41;;;;;;;0.60;0.60;;;;;;;;;;5039001;28;20187;-47
2022/01/05 03:14:07;;;;;;;0.60;0.50;;;;;;;;;;5029377;28;20213;-47
2022/01/05 03:16:33;;;;;;;0.88;0.50;;;;;;;;;;5040651;28;20728;-47
2022/01/05 03:18:59;;;;;;;0.50;0.50;;;;;;;;;;5034140;28;20183;-47
2022/01/05 03:21:25;;;;;;;0.60;0.60;;;;;;;;;;5019634;28;20290;-47
2022/01/05 03:23:51;;;;;;;0.98;0.50;;;;;;;;;;5030863;28;20424;-47
2022/01/05 03:26:17;;;;;;;0.38;0.38;;;;;;;;;;5047711;28;20258;-47
2022/01/05 03:28:42;;;;;;;0.50;0.50;;;;;;;;;;5038016;28;20180;-47
2022/01/05 03:31:08;;;;;;;0.57;0.57;;;;;;;;;;5041694;28;20211;-47
2022/01/05 03:33:34;;;;;;;0.55;0.55;;;;;;;;;;5023811;28;20195;-47
2022/01/05 03:36:00;;;;;;;0.52;0.52;;;;;;;;;;5036713;28;20210;-47
2022/01/05 03:38:28;;;;;;;0.60;0.60;;;;;;;;;;5036204;28;20215;-47
2022/01/05 03:40:54;;;;;;;0.60;0.60;;;;;;;;;;5040213;28;20204;-47
2022/01/05 03:43:20;;;;;;;0.52;0.52;;;;;;;;;;5034556;28;20229;-47
2022/01/05 03:45:47;;;;;;;0.35;0.35;;;;;;;;;;5044540;28;20589;-47
2022/01/05 03:48:15;;;;;;;0.40;0.40;;;;;;;;;;5043143;28;20216;-47
2022/01/05 03:50:41;;;;;;;0.50;0.50;;;;;;;;;;5039375;28;20262;-47
2022/01/05 03:53:08;;;;;;;0.40;0.40;;;;;;;;;;5043317;28;20183;-47
2022/01/05 03:55:34;;;;;;;0.57;0.57;;;;;;;;;;5019761;28;20181;-47
2022/01/05 03:58:01;;;;;;;0.60;0.60;;;;;;;;;;5033157;28;20194;-47
2022/01/05 04:00:29;;;;;;;0.22;0.22;;;;;;;;;;5039112;28;20620;-47
2022/01/05 04:02:55;;;;;;;0.30;0.30;;;;;;;;;;5045842;28;20282;-47
2022/01/05 04:05:21;;;;;;;0.45;0.45;;;;;;;;;;5038176;28;20890;-47
2022/01/05 04:07:47;;;;;;;0.85;0.50;;;;;;;;;;5047350;28;20179;-47
2022/01/05 04:10:13;;;;;;;0.50;0.50;;;;;;;;;;5036268;28;20463;-47
2022/01/05 04:12:39;;;;;;;0.30;0.28;;;;;;;;;;5041720;28;20188;-47
2022/01/05 04:15:05;;;;;;;0.93;0.52;;;;;;;;;;5040321;28;20200;-47
2022/01/05 04:17:31;;;;;;;0.43;0.43;;;;;;;;;;5033896;28;20212;-47
2022/01/05 04:19:57;;;;;;;0.45;0.45;;;;;;;;;;5047968;28;20209;-47
2022/01/05 04:22:23;;;;;;;0.28;0.28;;;;;;;;;;5034272;28;20180;-47
2022/01/05 04:24:49;;;;;;;0.40;0.40;;;;;;;;;;5045037;28;20191;-47
2022/01/05 04:27:15;;;;;;;0.40;0.40;;;;;;;;;;5030510;28;20198;-47
2022/01/05 04:29:42;;;;;;;0.40;0.40;;;;;;;;;;5018618;28;20686;-47
2022/01/05 04:32:08;;;;;;;0.20;0.20;;;;;;;;;;5023871;28;20279;-47
2022/01/05 04:34:34;;;;;;;0.47;0.47;;;;;;;;;;5034536;28;20193;-47
2022/01/05 04:37:00;;;;;;;0.30;0.30;;;;;;;;;;5036747;28;20179;-47
2022/01/05 04:39:26;;;;;;;0.50;0.50;;;;;;;;;;5036985;28;20519;-47
2022/01/05 04:41:52;;;;;;;0.50;0.32;;;;;;;;;;5043530;28;20215;-47
2022/01/05 04:44:18;;;;;;;0.40;0.40;;;;;;;;;;5040315;28;20182;-47
2022/01/05 04:46:44;;;;;;;0.40;0.30;;;;;;;;;;5036127;28;20516;-47
2022/01/05 04:49:10;;;;;;;0.32;0.32;;;;;;;;;;5034033;28;20183;-47
2022/01/05 04:51:36;;;;;;;0.30;0.30;;;;;;;;;;5045630;28;20225;-47
2022/01/05 04:54:02;;;;;;;0.40;0.40;;;;;;;;;;5036685;28;20594;-47
2022/01/05 04:56:28;;;;;;;0.32;0.32;;;;;;;;;;5040176;28;20195;-47
2022/01/05 04:58:56;;;;;;;0.30;0.30;;;;;;;;;;5024640;28;20242;-47
2022/01/05 05:01:22;;;;;;;0.30;0.30;;;;;;;;;;5047311;28;21191;-47
2022/01/05 05:03:48;;;;;;;0.40;0.40;;;;;;;;;;5037567;28;20202;-47
2022/01/05 05:06:14;;;;;;;0.30;0.30;;;;;;;;;;5032484;28;20279;-47
2022/01/05 05:08:40;;;;;;;0.47;0.40;;;;;;;;;;5031679;28;20185;-47
2022/01/05 05:11:06;;;;;;;0.45;0.45;;;;;;;;;;5043361;28;20220;-47
2022/01/05 05:13:32;;;;;;;0.22;0.20;;;;;;;;;;5040824;28;20596;-47
2022/01/05 05:15:58;;;;;;;0.82;0.40;;;;;;;;;;5044166;28;20214;-47
2022/01/05 05:18:24;;;;;;;0.65;0.50;;;;;;;;;;5034905;28;20261;-47
2022/01/05 05:20:50;;;;;;;0.55;0.52;;;;;;;;;;5043987;28;20215;-47
2022/01/05 05:23:17;;;;;;;1.60;0.40;;;;;;;;;;5045077;28;20182;-47
2022/01/05 05:25:43;;;;;;;3.28;0.50;;;;;;;;;;5030486;28;20184;-47
2022/01/05 05:28:09;;;;;;;21.77;2.80;;;;;;;;;;5043302;28;20604;-47
2022/01/05 05:30:36;;;;;;;49.10;9.80;;;;;;;;;;5042215;28;20187;-46
2022/01/05 05:33:03;;;;;;;52.00;13.60;;;;;;;;;;5034342;28;20200;-47
2022/01/05 05:35:29;;;;;;;50.10;11.68;;;;;;;;;;5035388;28;20189;-47
2022/01/05 05:37:55;;;;;;;41.35;10.85;;;;;;;;;;5044325;28;20195;-47
2022/01/05 05:40:21;;;;;;;43.78;9.85;;;;;;;;;;5038758;28;20495;-47
2022/01/05 05:42:47;;;;;;;35.63;9.88;;;;;;;;;;5037791;28;20201;-47
2022/01/05 05:45:13;;;;;;;37.80;9.63;;;;;;;;;;5033606;28;20563;-47
2022/01/05 05:47:39;;;;;;;43.78;10.63;;;;;;;;;;5047631;28;20266;-47
2022/01/05 05:50:05;;;;;;;34.42;9.95;;;;;;;;;;5038492;28;20458;-47
2022/01/05 05:52:31;;;;;;;36.55;10.13;;;;;;;;;;5036598;28;20180;-47
2022/01/05 05:54:58;;;;;;;33.63;8.95;;;;;;;;;;5025629;28;20289;-47
2022/01/05 05:57:24;;;;;;;24.48;8.40;;;;;;;;;;5031895;28;20193;-47
2022/01/05 05:59:50;;;;;;;40.33;10.73;;;;;;;;;;5021576;28;20192;-47
2022/01/05 06:02:16;;;;;;;33.10;8.73;;;;;;;;;;5033396;28;20196;-47
2022/01/05 06:04:42;;;;;;;35.85;8.80;;;;;;;;;;5046536;28;20206;-47
2022/01/05 06:07:08;;;;;;;28.35;8.02;;;;;;;;;;5042112;28;20795;-47
2022/01/05 06:09:34;;;;;;;32.75;9.25;;;;;;;;;;5045076;28;20179;-47
2022/01/05 06:12:00;;;;;;;29.20;8.18;;;;;;;;;;5049702;28;20185;-47
2022/01/05 06:14:26;;;;;;;31.63;7.88;;;;;;;;;;5043282;28;20270;-47
2022/01/05 06:16:52;;;;;;;27.52;7.80;;;;;;;;;;5047639;28;20187;-47
2022/01/05 06:19:18;;;;;;;24.58;8.25;;;;;;;;;;5044252;28;20194;-47
2022/01/05 06:21:44;;;;;;;23.15;6.32;;;;;;;;;;5042456;28;20250;-47
2022/01/05 06:24:10;;;;;;;26.45;7.70;;;;;;;;;;5043378;28;20185;-47
2022/01/05 06:26:37;;;;;;;26.10;8.15;;;;;;;;;;5042325;28;20176;-48
2022/01/05 06:29:03;;;;;;;25.20;6.75;;;;;;;;;;5037013;28;20183;-47
2022/01/05 06:31:29;;;;;;;19.40;6.65;;;;;;;;;;5047508;28;20193;-47
2022/01/05 06:33:55;;;;;;;25.05;7.40;;;;;;;;;;5033900;28;20217;-47
2022/01/05 06:36:21;;;;;;;20.38;6.40;;;;;;;;;;5043331;28;20462;-47
2022/01/05 06:38:47;;;;;;;19.13;6.07;;;;;;;;;;5037456;28;20184;-47
2022/01/05 06:41:13;;;;;;;22.17;6.78;;;;;;;;;;5049930;28;20210;-47
2022/01/05 06:43:39;;;;;;;24.27;7.15;;;;;;;;;;5035234;28;20187;-47
2022/01/05 06:46:05;;;;;;;14.77;6.03;;;;;;;;;;5048371;28;20326;-47
2022/01/05 06:48:31;;;;;;;21.42;7.35;;;;;;;;;;5033793;28;20670;-47
2022/01/05 06:50:57;;;;;;;21.73;6.45;;;;;;;;;;5049548;28;20190;-47
2022/01/05 06:53:23;;;;;;;16.25;5.80;;;;;;;;;;5041046;28;20505;-47
2022/01/05 06:55:49;;;;;;;15.20;5.57;;;;;;;;;;5049132;28;20197;-47
2022/01/05 06:58:15;;;;;;;14.90;5.95;;;;;;;;;;5028809;28;20183;-47
2022/01/05 07:00:41;;;;;;;15.52;5.32;;;;;;;;;;5039660;28;20454;-47
2022/01/05 07:03:07;;;;;;;21.63;5.60;;;;;;;;;;5039432;28;20233;-47
2022/01/05 07:05:33;;;;;;;15.45;5.65;;;;;;;;;;5045077;28;20267;-47
2022/01/05 07:07:59;;;;;;;16.23;5.50;;;;;;;;;;5031864;28;20278;-47
2022/01/05 07:10:25;;;;;;;18.08;5.45;;;;;;;;;;5045979;28;20566;-47
2022/01/05 07:12:51;;;;;;;16.08;4.95;;;;;;;;;;5043507;28;20226;-47
2022/01/05 07:15:17;;;;;;;12.45;4.82;;;;;;;;;;5050701;28;20179;-47
2022/01/05 07:17:43;;;;;;;14.55;4.72;;;;;;;;;;5036436;28;20192;-47
2022/01/05 07:20:10;;;;;;;13.80;4.93;;;;;;;;;;5024231;28;20180;-47
2022/01/05 07:22:37;;;;;;;11.80;4.75;;;;;;;;;;5040407;28;20606;-47
2022/01/05 07:25:03;;;;;;;14.10;4.57;;;;;;;;;;5032259;28;20184;-47
2022/01/05 07:27:29;;;;;;;16.70;4.70;;;;;;;;;;5029812;28;20685;-47
2022/01/05 07:29:55;;;;;;;13.82;4.60;;;;;;;;;;5020297;28;20214;-47
2022/01/05 07:32:21;;;;;;;10.50;4.40;;;;;;;;;;5019085;28;20212;-47
2022/01/05 07:34:47;;;;;;;9.57;4.00;;;;;;;;;;5022221;28;20177;-47
2022/01/05 07:37:13;;;;;;;11.50;4.28;;;;;;;;;;5038246;28;20184;-47
2022/01/05 07:39:40;;;;;;;11.15;3.72;;;;;;;;;;5032439;28;20194;-47
2022/01/05 07:42:06;;;;;;;10.75;4.22;;;;;;;;;;5044151;28;20214;-47
2022/01/05 07:44:32;;;;;;;11.68;3.95;;;;;;;;;;5042834;28;20175;-47
2022/01/05 07:46:58;;;;;;;9.10;3.67;;;;;;;;;;5033968;28;20167;-46
2022/01/05 07:49:24;;;;;;;9.48;3.63;;;;;;;;;;5045569;28;20194;-47
2022/01/05 07:51:51;;;;;;;8.18;3.78;;;;;;;;;;5027813;28;20184;-47
2022/01/05 07:54:17;;;;;;;8.98;3.80;;;;;;;;;;5036801;28;20175;-47
2022/01/05 07:56:43;;;;;;;10.40;4.00;;;;;;;;;;5026407;28;20196;-47
2022/01/05 07:59:09;;;;;;;8.32;3.63;;;;;;;;;;5034047;28;20267;-47
2022/01/05 08:01:35;;;;;;;9.48;3.58;;;;;;;;;;5025510;28;20295;-47
2022/01/05 08:04:01;;;;;;;8.35;3.13;;;;;;;;;;5020972;28;20279;-47
2022/01/05 08:06:27;;;;;;;7.75;3.30;;;;;;;;;;5032169;28;20205;-47
2022/01/05 08:08:53;;;;;;;9.18;3.28;;;;;;;;;;5035765;28;20267;-47
2022/01/05 08:11:19;;;;;;;7.85;3.70;;;;;;;;;;5039858;28;20254;-47
2022/01/05 08:13:46;;;;;;;7.45;3.15;;;;;;;;;;5040585;28;20252;-47
2022/01/05 08:16:12;;;;;;;7.25;3.42;;;;;;;;;;5038388;28;20175;-47
2022/01/05 08:18:38;;;;;;;8.18;3.15;;;;;;;;;;5038289;28;20281;-47
2022/01/05 08:21:05;;;;;;;9.15;3.35;;;;;;;;;;5029938;28;20286;-47
2022/01/05 08:23:31;;;;;;;5.20;2.75;;;;;;;;;;5043055;28;20180;-47
2022/01/05 08:25:57;;;;;;;7.20;2.88;;;;;;;;;;5047909;28;20175;-47
2022/01/05 08:28:23;;;;;;;6.72;2.80;;;;;;;;;;5049423;28;20180;-47
2022/01/05 08:30:49;;;;;;;9.73;3.33;;;;;;;;;;5029038;28;20577;-47
2022/01/05 08:33:16;;;;;;;7.60;2.58;;;;;;;;;;5038308;28;20578;-47
2022/01/05 08:35:42;;;;;;;6.35;2.90;;;;;;;;;;5040616;28;20184;-47
2022/01/05 08:38:09;;;;;;;6.75;2.35;;;;;;;;;;5024776;28;20186;-47
2022/01/05 08:40:35;;;;;;;6.00;2.97;;;;;;;;;;5029931;28;20641;-47
2022/01/05 08:43:03;;;;;;;7.03;2.97;;;;;;;;;;5031463;28;20586;-47
2022/01/05 08:45:29;;;;;;;5.93;2.53;;;;;;;;;;5036476;28;20555;-47
2022/01/05 08:47:56;;;;;;;5.75;2.40;;;;;;;;;;5038996;28;20211;-47
2022/01/05 08:50:23;;;;;;;5.43;2.63;;;;;;;;;;5032065;28;20176;-47
2022/01/05 08:52:49;;;;;;;6.13;2.55;;;;;;;;;;5037353;28;20873;-47
2022/01/05 08:55:16;;;;;;;6.05;2.85;;;;;;;;;;5037228;28;20187;-47
2022/01/05 08:57:42;;;;;;;8.32;3.00;;;;;;;;;;5043139;28;20206;-47
2022/01/05 09:00:10;;;;;;;5.68;2.85;;;;;;;;;;5036375;28;20180;-47
2022/01/05 09:02:36;;;;;;;4.57;2.35;;;;;;;;;;5032806;28;20196;-47
2022/01/05 09:05:03;;;;;;;7.88;2.55;;;;;;;;;;5045831;28;20194;-47
2022/01/05 09:07:29;;;;;;;7.38;2.60;;;;;;;;;;5033718;28;20183;-47
2022/01/05 09:09:55;;;;;;;3.45;2.00;;;;;;;;;;5045185;28;20187;-47
2022/01/05 09:12:22;;;;;;;4.43;2.45;;;;;;;;;;5037230;28;20491;-47
2022/01/05 09:14:48;;;;;;;6.53;2.50;;;;;;;;;;5037946;28;20184;-47
2022/01/05 09:17:14;;;;;;;4.00;2.10;;;;;;;;;;5035422;28;20287;-47
2022/01/05 09:19:42;;;;;;;5.22;2.50;;;;;;;;;;5037475;28;20211;-47
2022/01/05 09:22:08;;;;;;;5.18;2.17;;;;;;;;;;5038042;28;20473;-47
2022/01/05 09:24:36;;;;;;;3.58;1.88;;;;;;;;;;5036533;28;20242;-47
2022/01/05 09:27:04;;;;;;;4.47;2.22;;;;;;;;;;5025466;28;20553;-47
2022/01/05 09:29:31;;;;;;;4.32;2.15;;;;;;;;;;5029663;28;20183;-47
2022/01/05 09:32:02;;;;;;;4.28;1.95;;;;;;;;;;5029224;28;20222;-47
2022/01/05 09:34:28;;;;;;;4.07;2.03;;;;;;;;;;5038409;28;20175;-47
2022/01/05 09:36:59;;;;;;;3.15;1.75;;;;;;;;;;5040422;28;20190;-47
2022/01/05 09:42:10;;;;;;;4.53;2.10;;;;;;;;;;5027618;28;20224;-47
2022/01/05 09:44:38;;;;;;;5.43;2.10;;;;;;;;;;5050147;28;20287;-47
2022/01/05 09:47:23;;;;;;;3.25;1.83;;;;;;;;;;5050130;28;20219;-47
2022/01/05 09:49:53;;;;;;;5.18;2.10;;;;;;;;;;5035846;28;20267;-47
2022/01/05 09:52:19;;;;;;;2.42;1.65;;;;;;;;;;5038514;28;20180;-47
2022/01/05 09:54:46;;;;;;;3.75;2.05;;;;;;;;;;5038709;28;20195;-47
2022/01/05 09:57:14;;;;;;;3.33;1.77;;;;;;;;;;5031847;28;20592;-47
2022/01/05 09:59:41;;;;;;;2.55;1.95;;;;;;;;;;5037837;28;20556;-47
2022/01/05 10:02:07;;;;;;;4.82;1.90;;;;;;;;;;5040692;28;20482;-47
2022/01/05 10:04:35;;;;;;;3.97;1.90;;;;;;;;;;5047729;28;20214;-47
2022/01/05 10:07:01;;;;;;;5.50;2.22;;;;;;;;;;5038411;28;20187;-47
2022/01/05 10:09:27;;;;;;;3.15;1.70;;;;;;;;;;5026254;28;20231;-47
2022/01/05 10:11:53;;;;;;;3.47;1.83;;;;;;;;;;5026115;28;20218;-47
2022/01/05 10:14:19;;;;;;;2.90;1.70;;;;;;;;;;5023541;28;20608;-47
2022/01/05 10:17:08;;;;;;;3.45;1.95;;;;;;;;;;5024076;28;20409;-47
2022/01/05 10:19:34;;;;;;;4.25;1.63;;;;;;;;;;5024648;28;20195;-47
2022/01/05 10:22:00;;;;;;;4.55;1.73;;;;;;;;;;5040133;28;20202;-47
2022/01/05 10:24:42;;;;;;;2.15;1.30;;;;;;;;;;5047757;28;20246;-47
2022/01/05 10:27:08;;;;;;;2.90;1.42;;;;;;;;;;5034807;28;20183;-47
2022/01/05 10:29:34;;;;;;;3.67;1.60;;;;;;;;;;5038877;28;20198;-47
2022/01/05 10:32:01;;;;;;;2.35;1.50;;;;;;;;;;5036753;28;20183;-47
2022/01/05 10:34:29;;;;;;;2.53;1.58;;;;;;;;;;5037508;28;20198;-47
2022/01/05 10:36:55;;;;;;;2.88;1.77;;;;;;;;;;5030679;28;20187;-47
2022/01/05 10:39:28;;;;;;;2.10;1.33;;;;;;;;;;5032412;28;20176;-47
2022/01/05 10:41:54;;;;;;;2.88;1.50;;;;;;;;;;5050148;28;20222;-47
2022/01/05 10:44:21;;;;;;;3.47;1.80;;;;;;;;;;5040686;28;20183;-47
2022/01/05 10:46:51;;;;;;;3.65;1.63;;;;;;;;;;5035801;28;20183;-47
2022/01/05 10:49:24;;;;;;;2.53;1.50;;;;;;;;;;5042699;28;20183;-47
2022/01/05 10:51:50;;;;;;;3.00;1.50;;;;;;;;;;5052669;28;20190;-47
2022/01/05 10:54:17;;;;;;;3.33;1.63;;;;;;;;;;5039930;28;20184;-47
2022/01/05 10:56:44;;;;;;;2.53;1.50;;;;;;;;;;5040972;28;20556;-47
2022/01/05 10:59:10;;;;;;;2.13;1.33;;;;;;;;;;5030536;28;20190;-47
2022/01/05 11:01:36;;;;;;;2.38;1.10;;;;;;;;;;5032686;28;20297;-47
2022/01/05 11:04:28;;;;;;;2.90;1.38;;;;;;;;;;5035752;28;20308;-47
2022/01/05 11:06:57;;;;;;;1.98;1.08;;;;;;;;;;5024955;28;20630;-47
2022/01/05 11:09:23;;;;;;;3.58;1.30;;;;;;;;;;5044059;28;20187;-46
2022/01/05 11:11:50;;;;;;;1.80;1.30;;;;;;;;;;5043077;28;20190;-46
2022/01/05 11:14:29;;;;;;;1.65;1.30;;;;;;;;;;5038402;28;20176;-47
2022/01/05 11:16:56;;;;;;;2.05;1.38;;;;;;;;;;5043310;28;20195;-47
2022/01/05 11:19:23;;;;;;;2.05;1.35;;;;;;;;;;5044940;28;20277;-47
2022/01/05 11:21:59;;;;;;;2.63;1.10;;;;;;;;;;5038602;28;20247;-47
2022/01/05 11:24:26;;;;;;;2.97;1.58;;;;;;;;;;5048021;28;20179;-47
2022/01/05 11:26:53;;;;;;;2.22;1.40;;;;;;;;;;5045122;28;20559;-47
2022/01/05 11:29:19;;;;;;;2.85;1.65;;;;;;;;;;5043589;28;20179;-47
2022/01/05 11:31:45;;;;;;;2.13;1.33;;;;;;;;;;5034840;28;20274;-47
2022/01/05 11:34:12;;;;;;;1.98;1.15;;;;;;;;;;5036759;28;20183;-47
2022/01/05 11:36:42;;;;;;;1.75;1.02;;;;;;;;;;5038368;28;20578;-47
2022/01/05 11:39:08;;;;;;;1.92;1.45;;;;;;;;;;5038476;28;20191;-47
2022/01/05 11:41:40;;;;;;;3.17;1.58;;;;;;;;;;5043292;28;20236;-46
2022/01/05 11:44:06;;;;;;;1.50;1.30;;;;;;;;;;5035686;28;20259;-47
2022/01/05 11:46:32;;;;;;;2.10;1.30;;;;;;;;;;5035571;28;20180;-47
2022/01/05 11:48:58;;;;;;;2.97;1.27;;;;;;;;;;5043305;28;20440;-47
2022/01/05 11:51:45;;;;;;;2.53;1.20;;;;;;;;;;5038843;28;20282;-47
2022/01/05 11:54:28;;;;;;;3.10;1.55;;;;;;;;;;5026181;28;20188;-47
2022/01/05 11:56:56;;;;;;;3.42;1.13;;;;;;;;;;5042432;28;20215;-47
2022/01/05 11:59:22;;;;;;;1.88;1.27;;;;;;;;;;5033424;28;20185;-46
2022/01/05 12:01:59;;;;;;;1.67;0.98;;;;;;;;;;5050562;28;20489;-47
2022/01/05 12:04:25;;;;;;;1.75;1.17;;;;;;;;;;5044122;28;20179;-47
2022/01/05 12:06:51;;;;;;;1.95;1.20;;;;;;;;;;5039934;28;20543;-47
2022/01/05 12:09:27;;;;;;;1.63;1.00;;;;;;;;;;5034455;28;20219;-47
2022/01/05 12:11:54;;;;;;;2.55;1.20;;;;;;;;;;5047852;28;20201;-47
2022/01/05 12:14:20;;;;;;;2.20;1.00;;;;;;;;;;5037204;28;20219;-47
2022/01/05 12:16:52;;;;;;;2.05;1.15;;;;;;;;;;5050357;28;20225;-47
2022/01/05 12:19:20;;;;;;;1.40;1.05;;;;;;;;;;5020216;28;20286;-47
2022/01/05 12:21:47;;;;;;;1.25;1.00;;;;;;;;;;5038607;28;20203;-46
2022/01/05 12:24:14;;;;;;;2.95;1.48;;;;;;;;;;5040300;28;20193;-47
2022/01/05 12:26:40;;;;;;;2.17;1.17;;;;;;;;;;5039767;28;20228;-47
2022/01/05 12:29:07;;;;;;;2.63;1.00;;;;;;;;;;5024272;28;20190;-47
2022/01/05 12:31:51;;;;;;;1.92;0.88;;;;;;;;;;5046379;28;20435;-47
2022/01/05 12:34:40;;;;;;;1.67;1.08;;;;;;;;;;5035267;28;20195;-47
2022/01/05 12:37:25;;;;;;;1.25;1.00;;;;;;;;;;5030959;28;20192;-47
2022/01/05 12:39:51;;;;;;;2.00;1.30;;;;;;;;;;5037927;28;20192;-47
2022/01/05 12:42:23;;;;;;;2.70;1.10;;;;;;;;;;5047168;28;20230;-47
2022/01/05 12:44:49;;;;;;;2.50;1.02;;;;;;;;;;5027508;28;20515;-47
2022/01/05 12:47:17;;;;;;;2.05;1.00;;;;;;;;;;5033334;28;20207;-47
2022/01/05 12:49:43;;;;;;;1.23;0.88;;;;;;;;;;5039673;28;20179;-47
2022/01/05 12:52:14;;;;;;;1.65;1.00;;;;;;;;;;5028516;28;20179;-47
2022/01/05 12:54:44;;;;;;;1.52;1.08;;;;;;;;;;5038676;28;20190;-47
2022/01/05 12:57:14;;;;;;;1.98;1.20;;;;;;;;;;5027615;28;20470;-47
2022/01/05 12:59:42;;;;;;;1.45;0.90;;;;;;;;;;5024188;28;20199;-46
2022/01/05 13:02:10;;;;;;;1.33;0.80;;;;;;;;;;5045601;28;20493;-46
2022/01/05 13:04:37;;;;;;;0.80;0.80;;;;;;;;;;5017464;28;20194;-47
2022/01/05 13:07:04;;;;;;;1.02;0.80;;;;;;;;;;5046065;28;20602;-47
2022/01/05 13:09:36;;;;;;;1.75;1.00;;;;;;;;;;5036726;28;20562;-47
2022/01/05 13:12:08;;;;;;;1.05;0.85;;;;;;;;;;5036685;28;20183;-47
2022/01/05 13:14:34;;;;;;;1.77;0.95;;;;;;;;;;5044131;28;20187;-47
2022/01/05 13:17:00;;;;;;;1.17;0.90;;;;;;;;;;5052791;28;20182;-47
2022/01/05 13:19:27;;;;;;;0.95;0.90;;;;;;;;;;5043919;28;20210;-47
2022/01/05 13:21:53;;;;;;;1.00;0.90;;;;;;;;;;5040316;28;20213;-47
2022/01/05 13:24:20;;;;;;;1.45;0.93;;;;;;;;;;5042293;28;20171;-47
2022/01/05 13:26:59;;;;;;;1.17;0.70;;;;;;;;;;5052853;28;20214;-47
2022/01/05 13:29:28;;;;;;;1.33;0.75;;;;;;;;;;5024518;28;20188;-47
2022/01/05 13:31:58;;;;;;;1.08;0.93;;;;;;;;;;5039915;28;20253;-47
2022/01/05 13:34:31;;;;;;;1.30;0.88;;;;;;;;;;5040007;28;20191;-47
2022/01/05 13:36:58;;;;;;;1.52;0.88;;;;;;;;;;5048311;28;20190;-47
2022/01/05 13:39:53;;;;;;;1.40;0.90;;;;;;;;;;5043904;28;20509;-47
2022/01/05 13:42:29;;;;;;;1.35;0.82;;;;;;;;;;5019310;28;20290;-47
2022/01/05 13:44:55;;;;;;;1.35;0.98;;;;;;;;;;5036881;28;20573;-47
2022/01/05 13:47:23;;;;;;;1.10;0.95;;;;;;;;;;5036929;28;20519;-47
2022/01/05 13:50:25;;;;;;;2.10;0.80;;;;;;;;;;5041207;28;20205;-47
2022/01/05 13:53:01;;;;;;;2.05;0.90;;;;;;;;;;5020474;28;20187;-47
2022/01/05 13:55:37;;;;;;;1.45;0.80;;;;;;;;;;5032815;28;20210;-46
2022/01/05 13:58:22;;;;;;;1.02;0.80;;;;;;;;;;5028341;28;20475;-47
2022/01/05 14:00:53;;;;;;;1.00;0.90;;;;;;;;;;5029718;28;20239;-47
2022/01/05 14:03:30;;;;;;;1.90;1.10;;;;;;;;;;5032719;28;20201;-47
2022/01/05 14:05:56;;;;;;;1.42;0.88;;;;;;;;;;5050823;28;20179;-47
2022/01/05 14:08:29;;;;;;;1.30;0.80;;;;;;;;;;5046752;28;20221;-47
2022/01/05 14:11:12;;;;;;;1.10;1.00;;;;;;;;;;5040437;28;20180;-47
2022/01/05 14:13:51;;;;;;;1.48;0.90;;;;;;;;;;5036122;28;20226;-47
2022/01/05 14:16:37;;;;;;;1.92;0.88;;;;;;;;;;5025748;28;20229;-47
2022/01/05 14:19:05;;;;;;;1.25;0.65;;;;;;;;;;5019571;28;20187;-47
2022/01/05 14:21:32;;;;;;;1.10;0.82;;;;;;;;;;5048096;28;20207;-47
2022/01/05 14:23:58;;;;;;;1.10;0.93;;;;;;;;;;5034612;28;20220;-47
2022/01/05 14:26:29;;;;;;;0.90;0.80;;;;;;;;;;5027153;28;20582;-47
2022/01/05 14:28:59;;;;;;;1.65;1.00;;;;;;;;;;5048187;28;20183;-47
2022/01/05 14:31:32;;;;;;;1.15;0.80;;;;;;;;;;5038869;28;20186;-47
2022/01/05 14:33:58;;;;;;;1.75;0.98;;;;;;;;;;5043935;28;20528;-47
2022/01/05 14:36:27;;;;;;;1.02;0.60;;;;;;;;;;5051524;28;20198;-47
2022/01/05 14:39:08;;;;;;;1.75;1.10;;;;;;;;;;5035916;28;20227;-47
2022/01/05 14:41:39;;;;;;;2.47;1.00;;;;;;;;;;5043194;28;20216;-47
2022/01/05 14:44:06;;;;;;;2.22;0.80;;;;;;;;;;5022293;28;20179;-47
2022/01/05 14:46:33;;;;;;;2.22;0.88;;;;;;;;;;5036130;28;20275;-47